Time;durP1;ratioP1;P1;durP2;ratioP2;P2;SDS_P1;SDS_P2;PMS_P1;PMS_P2;Temp;Humidity;BMP_temperature;BMP_pressure;BME280_temperature;BME280_humidity;BME280_pressure;Samples;Min_cycle;Max_cycle;Signal;HPM_P1;HPM_P2
2024/01/01 00:00:06;;;;;;;0.20;0.20;;;;;;;;;;6292494;28;20111;-83
2024/01/01 00:03:07;;;;;;;0.20;0.20;;;;;;;;;;6311723;28;20027;-83
2024/01/01 00:06:07;;;;;;;0.20;0.20;;;;;;;;;;6292001;28;20171;-83
2024/01/01 00:09:08;;;;;;;0.20;0.20;;;;;;;;;;6281795;28;20110;-83
2024/01/01 00:12:08;;;;;;;0.20;0.20;;;;;;;;;;6296675;28;20031;-83
2024/01/01 00:15:10;;;;;;;0.20;0.20;;;;;;;;;;6290433;28;20028;-83
2024/01/01 00:18:13;;;;;;;0.20;0.20;;;;;;;;;;6290394;28;20040;-82
2024/01/01 00:21:13;;;;;;;0.20;0.20;;;;;;;;;;6288360;28;20023;-83
2024/01/01 00:24:13;;;;;;;0.20;0.20;;;;;;;;;;6277441;28;20116;-82
2024/01/01 00:27:14;;;;;;;0.20;0.20;;;;;;;;;;6277124;28;20052;-82
2024/01/01 00:30:14;;;;;;;0.20;0.20;;;;;;;;;;6293525;28;20386;-83
2024/01/01 00:33:14;;;;;;;0.20;0.20;;;;;;;;;;6293165;28;20017;-83
2024/01/01 00:36:15;;;;;;;0.20;0.20;;;;;;;;;;6294853;28;20452;-83
2024/01/01 00:39:15;;;;;;;0.20;0.20;;;;;;;;;;6286947;28;20024;-83
2024/01/01 00:42:15;;;;;;;0.20;0.20;;;;;;;;;;6290596;28;20501;-83
2024/01/01 00:45:16;;;;;;;0.20;0.20;;;;;;;;;;6291695;28;20489;-83
2024/01/01 00:48:16;;;;;;;0.20;0.20;;;;;;;;;;6293611;28;20280;-83
2024/01/01 00:51:16;;;;;;;0.20;0.20;;;;;;;;;;6291706;28;20023;-83
2024/01/01 00:54:16;;;;;;;0.20;0.20;;;;;;;;;;6291046;28;20110;-83
2024/01/01 00:57:17;;;;;;;0.20;0.20;;;;;;;;;;6289373;28;20092;-82
2024/01/01 01:00:17;;;;;;;0.20;0.20;;;;;;;;;;6293531;28;20673;-82
2024/01/01 01:03:17;;;;;;;0.30;0.30;;;;;;;;;;6288154;28;20016;-82
2024/01/01 01:06:19;;;;;;;0.20;0.20;;;;;;;;;;6285060;28;20016;-82
2024/01/01 01:09:19;;;;;;;;;;;;;;;;;;6281849;28;20063;-82
2024/01/01 01:12:19;;;;;;;0.20;0.20;;;;;;;;;;6290424;28;19957;-81
2024/01/01 01:15:21;;;;;;;0.30;0.30;;;;;;;;;;6284731;28;20078;-80
2024/01/01 01:18:22;;;;;;;0.20;0.20;;;;;;;;;;6290757;28;20065;-80
2024/01/01 01:21:22;;;;;;;0.23;0.23;;;;;;;;;;6287603;28;20521;-80
2024/01/01 01:24:22;;;;;;;0.20;0.20;;;;;;;;;;6290476;28;20021;-79
2024/01/01 01:27:22;;;;;;;0.27;0.27;;;;;;;;;;6297842;28;20049;-79
2024/01/01 01:30:22;;;;;;;0.20;0.20;;;;;;;;;;6291232;28;20342;-79
2024/01/01 01:33:23;;;;;;;0.20;0.20;;;;;;;;;;6290687;28;20452;-79
2024/01/01 01:36:23;;;;;;;0.20;0.20;;;;;;;;;;6294887;28;20390;-79
2024/01/01 01:39:23;;;;;;;0.20;0.20;;;;;;;;;;6295591;28;20274;-79
2024/01/01 01:42:23;;;;;;;0.20;0.20;;;;;;;;;;6293620;28;20451;-79
2024/01/01 01:45:24;;;;;;;0.30;0.30;;;;;;;;;;6309750;28;20035;-79
2024/01/01 01:48:25;;;;;;;0.20;0.20;;;;;;;;;;6296308;28;20016;-79
2024/01/01 01:51:25;;;;;;;0.20;0.20;;;;;;;;;;6296813;28;20020;-79
2024/01/01 01:54:25;;;;;;;0.20;0.20;;;;;;;;;;6295831;28;20501;-79
2024/01/01 01:57:26;;;;;;;0.20;0.20;;;;;;;;;;6294932;28;20535;-79
2024/01/01 02:00:26;;;;;;;0.20;0.20;;;;;;;;;;6301201;28;20528;-79
2024/01/01 02:03:26;;;;;;;0.20;0.20;;;;;;;;;;6294616;28;20027;-80
2024/01/01 02:06:27;;;;;;;0.20;0.20;;;;;;;;;;6294298;28;20116;-79
2024/01/01 02:09:27;;;;;;;0.30;0.30;;;;;;;;;;6293790;28;20012;-79
2024/01/01 02:12:28;;;;;;;0.20;0.20;;;;;;;;;;6299938;28;20375;-79
2024/01/01 02:15:29;;;;;;;0.20;0.20;;;;;;;;;;6302961;28;20091;-80
2024/01/01 02:18:29;;;;;;;0.20;0.20;;;;;;;;;;6294942;28;20043;-79
2024/01/01 02:21:30;;;;;;;0.20;0.20;;;;;;;;;;6295723;28;20490;-79
2024/01/01 02:24:31;;;;;;;0.20;0.20;;;;;;;;;;6307581;28;20016;-79
2024/01/01 02:27:33;;;;;;;0.20;0.20;;;;;;;;;;6301002;28;20067;-79
2024/01/01 02:30:33;;;;;;;0.20;0.20;;;;;;;;;;6283659;28;20107;-79
2024/01/01 02:33:33;;;;;;;0.20;0.20;;;;;;;;;;6294127;28;20009;-80
2024/01/01 02:36:35;;;;;;;0.20;0.20;;;;;;;;;;6288958;28;20043;-80
2024/01/01 02:39:35;;;;;;;0.20;0.20;;;;;;;;;;6287604;28;20023;-80
2024/01/01 02:42:35;;;;;;;0.20;0.20;;;;;;;;;;6297809;28;20044;-80
2024/01/01 02:45:35;;;;;;;0.20;0.20;;;;;;;;;;6298872;28;20490;-80
2024/01/01 02:48:36;;;;;;;0.20;0.20;;;;;;;;;;6295262;28;20012;-80
2024/01/01 02:51:40;;;;;;;0.20;0.20;;;;;;;;;;6294717;28;20021;-80
2024/01/01 02:54:40;;;;;;;0.20;0.20;;;;;;;;;;6297564;28;20009;-80
2024/01/01 02:57:41;;;;;;;0.20;0.20;;;;;;;;;;6290132;28;20028;-80
2024/01/01 03:00:41;;;;;;;0.20;0.20;;;;;;;;;;6298901;28;20044;-80
2024/01/01 03:03:41;;;;;;;0.20;0.20;;;;;;;;;;6293523;28;20020;-79
2024/01/01 03:06:41;;;;;;;0.20;0.20;;;;;;;;;;6296332;28;20164;-80
2024/01/01 03:09:42;;;;;;;0.20;0.20;;;;;;;;;;6278373;28;20213;-80
2024/01/01 03:12:43;;;;;;;0.20;0.20;;;;;;;;;;6297722;28;20067;-80
2024/01/01 03:15:43;;;;;;;0.20;0.20;;;;;;;;;;6278669;28;20079;-80
2024/01/01 03:18:43;;;;;;;0.20;0.20;;;;;;;;;;6285783;28;20019;-80
2024/01/01 03:21:43;;;;;;;0.20;0.20;;;;;;;;;;6284749;28;20017;-80
2024/01/01 03:24:43;;;;;;;0.20;0.20;;;;;;;;;;6291780;28;20077;-80
2024/01/01 03:27:43;;;;;;;0.20;0.20;;;;;;;;;;6287046;28;20052;-80
2024/01/01 03:30:44;;;;;;;0.20;0.20;;;;;;;;;;6291366;28;20108;-80
2024/01/01 03:33:45;;;;;;;0.20;0.20;;;;;;;;;;6278717;28;20024;-80
2024/01/01 03:36:46;;;;;;;;;;;;;;;;;;6287340;28;20044;-80
2024/01/01 03:39:46;;;;;;;0.28;0.28;;;;;;;;;;6290984;28;20378;-80
2024/01/01 03:42:46;;;;;;;0.20;0.20;;;;;;;;;;6292933;28;20528;-80
2024/01/01 03:45:46;;;;;;;0.20;0.20;;;;;;;;;;6283750;28;20082;-80
2024/01/01 03:48:46;;;;;;;0.20;0.20;;;;;;;;;;6291049;28;20020;-79
2024/01/01 03:51:47;;;;;;;0.20;0.20;;;;;;;;;;6297143;28;20019;-79
2024/01/01 03:54:47;;;;;;;0.30;0.30;;;;;;;;;;6293023;28;20560;-79
2024/01/01 03:57:48;;;;;;;0.20;0.20;;;;;;;;;;6279090;28;20024;-79
2024/01/01 04:00:49;;;;;;;0.20;0.20;;;;;;;;;;6292808;28;20454;-80
2024/01/01 04:03:49;;;;;;;0.20;0.20;;;;;;;;;;6282248;28;20020;-80
2024/01/01 04:06:50;;;;;;;0.20;0.20;;;;;;;;;;6287101;28;20025;-80
2024/01/01 04:09:50;;;;;;;0.20;0.20;;;;;;;;;;6292550;28;20008;-79
2024/01/01 04:12:51;;;;;;;0.20;0.20;;;;;;;;;;6292546;28;20023;-79
2024/01/01 04:15:52;;;;;;;0.20;0.20;;;;;;;;;;6289452;28;20029;-80
2024/01/01 04:18:52;;;;;;;0.20;0.20;;;;;;;;;;6289698;28;20487;-80
2024/01/01 04:21:52;;;;;;;0.20;0.20;;;;;;;;;;6288505;28;20263;-79
2024/01/01 04:24:52;;;;;;;0.20;0.20;;;;;;;;;;6302970;28;20369;-79
2024/01/01 04:27:52;;;;;;;0.20;0.20;;;;;;;;;;6292356;28;20391;-79
2024/01/01 04:30:53;;;;;;;0.30;0.30;;;;;;;;;;6290909;28;20032;-79
2024/01/01 04:33:55;;;;;;;0.20;0.20;;;;;;;;;;6296913;28;20053;-79
2024/01/01 04:36:55;;;;;;;0.20;0.20;;;;;;;;;;6287062;28;20021;-79
2024/01/01 04:39:55;;;;;;;0.20;0.20;;;;;;;;;;6307572;28;20024;-80
2024/01/01 04:42:56;;;;;;;0.20;0.20;;;;;;;;;;6286203;28;20108;-80
2024/01/01 04:45:56;;;;;;;0.20;0.20;;;;;;;;;;6284551;28;20024;-79
2024/01/01 04:48:56;;;;;;;0.20;0.20;;;;;;;;;;6295417;28;20027;-80
2024/01/01 04:51:56;;;;;;;0.20;0.20;;;;;;;;;;6289031;28;20029;-80
2024/01/01 04:54:56;;;;;;;0.30;0.30;;;;;;;;;;6290923;28;20059;-80
2024/01/01 04:57:57;;;;;;;0.20;0.20;;;;;;;;;;6290888;28;20440;-79
2024/01/01 05:00:57;;;;;;;0.20;0.20;;;;;;;;;;6277122;28;20029;-79
2024/01/01 05:03:57;;;;;;;0.20;0.20;;;;;;;;;;6291609;28;20028;-79
2024/01/01 05:06:57;;;;;;;0.20;0.20;;;;;;;;;;6295549;28;20493;-78
2024/01/01 05:09:57;;;;;;;0.20;0.20;;;;;;;;;;6299449;28;20448;-79
2024/01/01 05:12:58;;;;;;;0.20;0.20;;;;;;;;;;6289498;28;20032;-79
2024/01/01 05:15:58;;;;;;;0.20;0.20;;;;;;;;;;6296423;28;20052;-79
2024/01/01 05:18:58;;;;;;;0.20;0.20;;;;;;;;;;6293897;28;20025;-79
2024/01/01 05:21:58;;;;;;;0.20;0.20;;;;;;;;;;6291537;28;20118;-79
2024/01/01 05:24:59;;;;;;;0.20;0.20;;;;;;;;;;6294416;28;20551;-79
2024/01/01 05:27:59;;;;;;;0.20;0.20;;;;;;;;;;6295689;28;20033;-79
2024/01/01 05:30:59;;;;;;;0.20;0.20;;;;;;;;;;6296445;28;20020;-79
2024/01/01 05:33:59;;;;;;;0.20;0.20;;;;;;;;;;6288889;28;20051;-79
2024/01/01 05:37:00;;;;;;;0.20;0.20;;;;;;;;;;6287056;28;20470;-79
2024/01/01 05:40:00;;;;;;;0.20;0.20;;;;;;;;;;6306746;28;20024;-79
2024/01/01 05:43:00;;;;;;;0.20;0.20;;;;;;;;;;6284066;28;20431;-79
2024/01/01 05:46:00;;;;;;;0.20;0.20;;;;;;;;;;6292166;28;20017;-79
2024/01/01 05:49:01;;;;;;;0.20;0.20;;;;;;;;;;6289986;28;20020;-79
2024/01/01 05:52:02;;;;;;;0.20;0.20;;;;;;;;;;6296171;28;20017;-79
2024/01/01 05:55:02;;;;;;;0.20;0.20;;;;;;;;;;6292918;28;20020;-79
2024/01/01 05:58:04;;;;;;;0.20;0.20;;;;;;;;;;6296653;28;20024;-79
2024/01/01 06:01:04;;;;;;;0.20;0.20;;;;;;;;;;6291227;28;20030;-80
2024/01/01 06:04:05;;;;;;;0.20;0.20;;;;;;;;;;6297493;28;20360;-80
2024/01/01 06:07:05;;;;;;;0.20;0.20;;;;;;;;;;6285336;28;20020;-79
2024/01/01 06:10:05;;;;;;;0.20;0.20;;;;;;;;;;6282777;28;20027;-80
2024/01/01 06:13:06;;;;;;;0.20;0.20;;;;;;;;;;6286372;28;20025;-80
2024/01/01 06:16:06;;;;;;;0.20;0.20;;;;;;;;;;6294530;28;20025;-80
2024/01/01 06:19:07;;;;;;;0.20;0.20;;;;;;;;;;6290795;28;20040;-80
2024/01/01 06:22:07;;;;;;;0.20;0.20;;;;;;;;;;6285740;28;20028;-79
2024/01/01 06:25:09;;;;;;;0.20;0.20;;;;;;;;;;6294857;28;20021;-79
2024/01/01 06:28:09;;;;;;;0.20;0.20;;;;;;;;;;6287056;28;20063;-80
2024/01/01 06:31:10;;;;;;;0.20;0.20;;;;;;;;;;6288940;28;20034;-79
2024/01/01 06:34:10;;;;;;;0.20;0.20;;;;;;;;;;6301178;28;20047;-80
2024/01/01 06:37:10;;;;;;;0.20;0.20;;;;;;;;;;6293621;28;20032;-80
2024/01/01 06:40:10;;;;;;;0.20;0.20;;;;;;;;;;6281492;28;20438;-80
2024/01/01 06:43:11;;;;;;;0.20;0.20;;;;;;;;;;6289293;28;20063;-80
2024/01/01 06:46:11;;;;;;;0.20;0.20;;;;;;;;;;6288697;28;20024;-80
2024/01/01 06:49:11;;;;;;;0.20;0.20;;;;;;;;;;6291930;28;20394;-80
2024/01/01 06:52:12;;;;;;;0.20;0.20;;;;;;;;;;6288495;28;20020;-79
2024/01/01 06:55:12;;;;;;;0.20;0.20;;;;;;;;;;6294344;28;20050;-79
2024/01/01 06:58:12;;;;;;;0.20;0.20;;;;;;;;;;6294730;28;20025;-80
2024/01/01 07:01:12;;;;;;;0.20;0.20;;;;;;;;;;6296981;28;20028;-80
2024/01/01 07:04:14;;;;;;;0.20;0.20;;;;;;;;;;6290591;28;20042;-77
2024/01/01 07:07:17;;;;;;;0.15;0.15;;;;;;;;;;6285118;28;20546;-80
2024/01/01 07:10:17;;;;;;;0.20;0.20;;;;;;;;;;6291758;28;20021;-81
2024/01/01 07:13:17;;;;;;;0.20;0.20;;;;;;;;;;6273661;28;20028;-82
2024/01/01 07:16:17;;;;;;;0.20;0.20;;;;;;;;;;6293260;28;20275;-80
2024/01/01 07:19:17;;;;;;;0.20;0.20;;;;;;;;;;6285572;28;20025;-80
2024/01/01 07:22:18;;;;;;;0.20;0.20;;;;;;;;;;6294703;28;20024;-80
2024/01/01 07:25:18;;;;;;;0.20;0.20;;;;;;;;;;6300133;28;20044;-82
2024/01/01 07:28:18;;;;;;;0.20;0.20;;;;;;;;;;6281925;28;20020;-82
2024/01/01 07:31:18;;;;;;;0.20;0.20;;;;;;;;;;6290690;28;20513;-81
2024/01/01 07:34:19;;;;;;;0.20;0.20;;;;;;;;;;6289195;28;20100;-82
2024/01/01 07:37:20;;;;;;;0.20;0.20;;;;;;;;;;6280156;28;20478;-82
2024/01/01 07:40:20;;;;;;;0.20;0.20;;;;;;;;;;6297251;28;20029;-83
2024/01/01 07:43:22;;;;;;;0.20;0.20;;;;;;;;;;6288255;28;20025;-82
2024/01/01 07:46:22;;;;;;;0.20;0.20;;;;;;;;;;6292214;28;20086;-81
2024/01/01 07:49:23;;;;;;;0.20;0.20;;;;;;;;;;6290801;28;20442;-81
2024/01/01 07:52:23;;;;;;;0.10;0.10;;;;;;;;;;6284518;28;20133;-82
2024/01/01 07:55:23;;;;;;;0.20;0.20;;;;;;;;;;6294257;28;20024;-82
2024/01/01 07:58:23;;;;;;;0.20;0.20;;;;;;;;;;6293430;28;20043;-82
2024/01/01 08:01:24;;;;;;;0.20;0.20;;;;;;;;;;6291459;28;20028;-80
2024/01/01 08:04:24;;;;;;;0.20;0.20;;;;;;;;;;6286096;28;20480;-82
2024/01/01 08:07:24;;;;;;;0.20;0.20;;;;;;;;;;6291369;28;20125;-81
2024/01/01 08:10:24;;;;;;;0.20;0.20;;;;;;;;;;6287992;28;20131;-82
2024/01/01 08:13:25;;;;;;;0.20;0.20;;;;;;;;;;6291849;28;20094;-81
2024/01/01 08:16:25;;;;;;;0.20;0.20;;;;;;;;;;6288880;28;20059;-82
2024/01/01 08:19:25;;;;;;;0.20;0.20;;;;;;;;;;6289176;28;20021;-81
2024/01/01 08:22:25;;;;;;;0.10;0.10;;;;;;;;;;6287338;28;20039;-81
2024/01/01 08:25:25;;;;;;;0.20;0.20;;;;;;;;;;6290138;28;20521;-82
2024/01/01 08:28:26;;;;;;;0.20;0.20;;;;;;;;;;6288298;28;20081;-82
2024/01/01 08:31:26;;;;;;;0.20;0.20;;;;;;;;;;6287916;28;20016;-82
2024/01/01 08:34:28;;;;;;;0.20;0.20;;;;;;;;;;6291554;28;20016;-83
2024/01/01 08:37:28;;;;;;;;;;;;;;;;;;6292360;28;20036;-83
2024/01/01 08:40:29;;;;;;;0.20;0.20;;;;;;;;;;6290001;28;19921;-83
2024/01/01 08:43:29;;;;;;;0.20;0.20;;;;;;;;;;6285050;28;20094;-81
2024/01/01 08:46:29;;;;;;;0.20;0.20;;;;;;;;;;6294326;28;20020;-81
2024/01/01 08:49:29;;;;;;;0.20;0.20;;;;;;;;;;6291659;28;20371;-80
2024/01/01 08:52:29;;;;;;;0.10;0.10;;;;;;;;;;6293775;28;20016;-81
2024/01/01 08:55:29;;;;;;;0.20;0.20;;;;;;;;;;6290160;28;20094;-80
2024/01/01 08:58:30;;;;;;;0.15;0.15;;;;;;;;;;6291038;28;20024;-80
2024/01/01 09:01:30;;;;;;;0.20;0.20;;;;;;;;;;6291868;28;20032;-81
2024/01/01 09:04:30;;;;;;;0.20;0.20;;;;;;;;;;6286380;28;20059;-80
2024/01/01 09:07:30;;;;;;;0.20;0.20;;;;;;;;;;6292153;28;20043;-81
2024/01/01 09:10:31;;;;;;;0.20;0.20;;;;;;;;;;6286419;28;20040;-82
2024/01/01 09:13:31;;;;;;;0.20;0.20;;;;;;;;;;6287276;28;20478;-80
2024/01/01 09:16:31;;;;;;;0.20;0.20;;;;;;;;;;6292692;28;20032;-79
2024/01/01 09:19:32;;;;;;;0.20;0.20;;;;;;;;;;6293306;28;20015;-80
2024/01/01 09:22:32;;;;;;;0.20;0.20;;;;;;;;;;6289851;28;20553;-82
2024/01/01 09:25:33;;;;;;;0.20;0.20;;;;;;;;;;6293776;28;20075;-80
2024/01/01 09:28:33;;;;;;;0.20;0.20;;;;;;;;;;6294478;28;20498;-81
2024/01/01 09:31:35;;;;;;;0.20;0.20;;;;;;;;;;6292830;28;20050;-81
2024/01/01 09:34:35;;;;;;;0.20;0.20;;;;;;;;;;6291053;28;20027;-84
2024/01/01 09:37:36;;;;;;;0.10;0.10;;;;;;;;;;6293821;28;20024;-84
2024/01/01 09:40:36;;;;;;;0.13;0.13;;;;;;;;;;6294879;28;20027;-83
2024/01/01 09:43:36;;;;;;;0.20;0.20;;;;;;;;;;6293347;28;20027;-83
2024/01/01 09:46:37;;;;;;;0.20;0.20;;;;;;;;;;6291832;28;20082;-84
2024/01/01 09:49:37;;;;;;;0.20;0.20;;;;;;;;;;6291590;28;20021;-83
2024/01/01 09:52:37;;;;;;;0.20;0.20;;;;;;;;;;6293740;28;20486;-83
2024/01/01 09:55:38;;;;;;;0.20;0.20;;;;;;;;;;6286874;28;20475;-82
2024/01/01 09:58:45;;;;;;;0.20;0.20;;;;;;;;;;6291559;28;20544;-83
2024/01/01 10:02:00;;;;;;;0.20;0.20;;;;;;;;;;6293584;28;20020;-84
2024/01/01 10:05:11;;;;;;;0.20;0.20;;;;;;;;;;6289885;28;20052;-83
2024/01/01 10:08:13;;;;;;;0.20;0.20;;;;;;;;;;6292574;28;20390;-83
2024/01/01 10:11:20;;;;;;;0.20;0.20;;;;;;;;;;6291228;28;20027;-82
2024/01/01 10:14:21;;;;;;;0.20;0.20;;;;;;;;;;6290831;28;20020;-83
2024/01/01 10:17:21;;;;;;;0.20;0.20;;;;;;;;;;6289795;28;20057;-83
2024/01/01 10:20:22;;;;;;;0.20;0.20;;;;;;;;;;6287913;28;20051;-84
2024/01/01 10:23:26;;;;;;;0.20;0.20;;;;;;;;;;6292630;28;20024;-82
2024/01/01 10:26:26;;;;;;;0.20;0.20;;;;;;;;;;6294581;28;20047;-84
2024/01/01 10:29:27;;;;;;;0.20;0.20;;;;;;;;;;6288286;28;20060;-84
2024/01/01 10:32:27;;;;;;;0.20;0.20;;;;;;;;;;6286654;28;20125;-84
2024/01/01 10:35:29;;;;;;;0.20;0.20;;;;;;;;;;6304275;28;20020;-84
2024/01/01 10:38:30;;;;;;;0.20;0.20;;;;;;;;;;6282308;28;20550;-84
2024/01/01 10:41:31;;;;;;;0.20;0.20;;;;;;;;;;6297486;28;20364;-84
2024/01/01 10:44:31;;;;;;;0.20;0.20;;;;;;;;;;6293121;28;20433;-85
2024/01/01 10:47:32;;;;;;;0.20;0.20;;;;;;;;;;6290138;28;20047;-84
2024/01/01 10:50:35;;;;;;;0.20;0.20;;;;;;;;;;6292491;28;20021;-85
2024/01/01 10:53:47;;;;;;;0.20;0.20;;;;;;;;;;6294518;28;20018;-84
2024/01/01 10:57:05;;;;;;;0.20;0.20;;;;;;;;;;6280524;28;20013;-83
2024/01/01 11:00:27;;;;;;;0.20;0.20;;;;;;;;;;6285633;28;20027;-83
2024/01/01 11:03:27;;;;;;;0.30;0.30;;;;;;;;;;6288844;28;20155;-83
2024/01/01 11:06:31;;;;;;;0.20;0.20;;;;;;;;;;6290026;28;20388;-82
2024/01/01 11:09:31;;;;;;;0.20;0.20;;;;;;;;;;6288767;28;20020;-83
2024/01/01 11:12:35;;;;;;;0.20;0.20;;;;;;;;;;6284883;28;20070;-84
2024/01/01 11:15:41;;;;;;;0.30;0.30;;;;;;;;;;6269292;28;20017;-82
2024/01/01 11:18:43;;;;;;;0.20;0.20;;;;;;;;;;6292796;28;20025;-84
2024/01/01 11:21:44;;;;;;;0.20;0.20;;;;;;;;;;6283795;28;20445;-83
2024/01/01 11:24:45;;;;;;;0.20;0.20;;;;;;;;;;6291401;28;20044;-83
2024/01/01 11:27:47;;;;;;;0.20;0.20;;;;;;;;;;6292938;28;20040;-84
2024/01/01 11:30:47;;;;;;;0.20;0.20;;;;;;;;;;6305068;28;20012;-84
2024/01/01 11:33:59;;;;;;;0.20;0.20;;;;;;;;;;6288876;28;20016;-82
2024/01/01 11:37:00;;;;;;;0.20;0.20;;;;;;;;;;6280765;28;20020;-82
2024/01/01 11:40:03;;;;;;;0.20;0.20;;;;;;;;;;6285599;28;20120;-83
2024/01/01 11:43:07;;;;;;;0.20;0.20;;;;;;;;;;6279367;28;20029;-83
2024/01/01 11:46:08;;;;;;;0.20;0.20;;;;;;;;;;6292087;28;20465;-85
2024/01/01 11:49:08;;;;;;;0.15;0.15;;;;;;;;;;6289860;28;20017;-85
2024/01/01 11:52:09;;;;;;;0.20;0.20;;;;;;;;;;6279505;28;20090;-85
2024/01/01 11:55:10;;;;;;;0.20;0.20;;;;;;;;;;6289367;28;20024;-86
2024/01/01 11:58:11;;;;;;;0.20;0.20;;;;;;;;;;6271458;28;20028;-87
2024/01/01 12:01:11;;;;;;;0.20;0.20;;;;;;;;;;6283982;28;20024;-87
2024/01/01 12:04:11;;;;;;;0.20;0.20;;;;;;;;;;6290090;28;20027;-85
2024/01/01 12:07:27;;;;;;;0.20;0.20;;;;;;;;;;6286936;28;20027;-85
2024/01/01 12:10:28;;;;;;;0.20;0.20;;;;;;;;;;6279754;28;20399;-85
2024/01/01 12:13:29;;;;;;;0.20;0.20;;;;;;;;;;6281596;28;20025;-84
2024/01/01 12:16:32;;;;;;;0.20;0.20;;;;;;;;;;6287432;28;20017;-85
2024/01/01 12:19:33;;;;;;;0.20;0.20;;;;;;;;;;6285922;28;20032;-83
2024/01/01 12:22:33;;;;;;;0.20;0.20;;;;;;;;;;6290547;28;20029;-84
2024/01/01 12:25:33;;;;;;;0.20;0.20;;;;;;;;;;6295077;28;20405;-83
2024/01/01 12:28:37;;;;;;;0.20;0.20;;;;;;;;;;6317916;28;20071;-83
2024/01/01 12:31:38;;;;;;;0.20;0.20;;;;;;;;;;6322324;28;20020;-83
2024/01/01 12:34:38;;;;;;;0.20;0.20;;;;;;;;;;6321746;28;20405;-83
2024/01/01 12:37:38;;;;;;;0.20;0.20;;;;;;;;;;6305306;28;20011;-83
2024/01/01 12:40:40;;;;;;;0.20;0.20;;;;;;;;;;6327778;28;20090;-83
2024/01/01 12:43:40;;;;;;;0.20;0.20;;;;;;;;;;6329473;28;20051;-82
2024/01/01 12:46:41;;;;;;;0.20;0.20;;;;;;;;;;6322541;28;20022;-83
2024/01/01 12:49:41;;;;;;;0.20;0.20;;;;;;;;;;6309027;28;20066;-83
2024/01/01 12:52:41;;;;;;;0.20;0.20;;;;;;;;;;6326165;28;20481;-82
2024/01/01 12:55:41;;;;;;;0.20;0.20;;;;;;;;;;6303356;28;20040;-83
2024/01/01 12:58:41;;;;;;;0.20;0.20;;;;;;;;;;6302815;28;20008;-84
2024/01/01 13:01:42;;;;;;;0.20;0.20;;;;;;;;;;6315332;28;20052;-84
2024/01/01 13:04:42;;;;;;;0.20;0.20;;;;;;;;;;6322043;28;20102;-84
2024/01/01 13:07:42;;;;;;;0.20;0.20;;;;;;;;;;6306317;28;20023;-85
2024/01/01 13:10:42;;;;;;;0.20;0.20;;;;;;;;;;6322616;28;20090;-85
2024/01/01 13:13:43;;;;;;;0.20;0.20;;;;;;;;;;6311634;28;20054;-86
2024/01/01 13:16:45;;;;;;;0.20;0.20;;;;;;;;;;6315789;28;20032;-84
2024/01/01 13:19:46;;;;;;;0.20;0.20;;;;;;;;;;6327361;28;20035;-85
2024/01/01 13:22:46;;;;;;;0.20;0.20;;;;;;;;;;6301166;28;20028;-85
2024/01/01 13:25:47;;;;;;;0.20;0.20;;;;;;;;;;6279686;28;20044;-85
2024/01/01 13:28:47;;;;;;;0.20;0.20;;;;;;;;;;6293472;28;20040;-85
2024/01/01 13:31:48;;;;;;;0.20;0.20;;;;;;;;;;6324345;28;20020;-86
2024/01/01 13:34:48;;;;;;;0.20;0.20;;;;;;;;;;6307934;28;20027;-85
2024/01/01 13:37:49;;;;;;;0.20;0.20;;;;;;;;;;6307241;28;20020;-87
2024/01/01 13:40:49;;;;;;;0.20;0.20;;;;;;;;;;6317056;28;20050;-86
2024/01/01 13:43:49;;;;;;;0.20;0.20;;;;;;;;;;6319679;28;20024;-87
2024/01/01 13:46:49;;;;;;;0.20;0.20;;;;;;;;;;6326092;28;20426;-88
2024/01/01 13:49:49;;;;;;;0.20;0.20;;;;;;;;;;6326326;28;20518;-88
2024/01/01 13:52:50;;;;;;;0.20;0.20;;;;;;;;;;6296453;28;20028;-89
2024/01/01 13:55:51;;;;;;;0.20;0.20;;;;;;;;;;6309933;28;20123;-88
2024/01/01 13:58:51;;;;;;;0.10;0.10;;;;;;;;;;6309654;28;20028;-88
2024/01/01 14:01:52;;;;;;;0.20;0.20;;;;;;;;;;6312102;28;20102;-87
2024/01/01 14:04:53;;;;;;;0.20;0.20;;;;;;;;;;6305316;28;20028;-87
2024/01/01 14:07:54;;;;;;;0.10;0.10;;;;;;;;;;6300941;28;20028;-87
2024/01/01 14:10:54;;;;;;;0.10;0.10;;;;;;;;;;6310394;28;20020;-88
2024/01/01 14:13:54;;;;;;;0.20;0.20;;;;;;;;;;6324051;28;20350;-87
2024/01/01 14:16:54;;;;;;;0.20;0.20;;;;;;;;;;6327847;28;20030;-87
2024/01/01 14:19:55;;;;;;;0.20;0.20;;;;;;;;;;6310872;28;20390;-87
2024/01/01 14:22:55;;;;;;;0.20;0.20;;;;;;;;;;6330330;28;20031;-87
2024/01/01 14:25:55;;;;;;;0.20;0.20;;;;;;;;;;6326701;28;20071;-86
2024/01/01 14:28:55;;;;;;;0.20;0.20;;;;;;;;;;6308608;28;20034;-87
2024/01/01 14:31:55;;;;;;;0.20;0.20;;;;;;;;;;6325256;28;20016;-86
2024/01/01 14:34:56;;;;;;;0.20;0.20;;;;;;;;;;6326218;28;20019;-85
2024/01/01 14:37:56;;;;;;;0.20;0.20;;;;;;;;;;6313408;28;20024;-86
2024/01/01 14:40:56;;;;;;;0.20;0.20;;;;;;;;;;6330469;28;20024;-86
2024/01/01 14:43:56;;;;;;;0.20;0.20;;;;;;;;;;6325841;28;20221;-86
2024/01/01 14:46:56;;;;;;;0.20;0.20;;;;;;;;;;6316280;28;20417;-87
2024/01/01 14:49:57;;;;;;;0.20;0.20;;;;;;;;;;6296156;28;20478;-87
2024/01/01 14:52:57;;;;;;;0.20;0.20;;;;;;;;;;6297049;28;20028;-87
2024/01/01 14:55:57;;;;;;;0.13;0.13;;;;;;;;;;6318883;28;20040;-87
2024/01/01 14:58:57;;;;;;;0.20;0.20;;;;;;;;;;6313778;28;20046;-88
2024/01/01 15:01:58;;;;;;;0.10;0.10;;;;;;;;;;6318124;28;20390;-87
2024/01/01 15:04:58;;;;;;;0.20;0.20;;;;;;;;;;6313437;28;20087;-82
2024/01/01 15:07:59;;;;;;;0.20;0.20;;;;;;;;;;6306220;28;20500;-82
2024/01/01 15:10:59;;;;;;;0.20;0.20;;;;;;;;;;6288797;28;20036;-81
2024/01/01 15:13:59;;;;;;;0.20;0.20;;;;;;;;;;6311365;28;20094;-81
2024/01/01 15:17:00;;;;;;;0.20;0.20;;;;;;;;;;6323358;28;20066;-81
2024/01/01 15:20:03;;;;;;;0.20;0.20;;;;;;;;;;6315919;28;20028;-81
2024/01/01 15:23:04;;;;;;;0.20;0.20;;;;;;;;;;6312607;28;20059;-82
2024/01/01 15:26:05;;;;;;;0.20;0.20;;;;;;;;;;6333146;28;20042;-81
2024/01/01 15:29:05;;;;;;;0.20;0.20;;;;;;;;;;6306587;28;20016;-81
2024/01/01 15:32:07;;;;;;;0.20;0.20;;;;;;;;;;6306137;28;20377;-81
2024/01/01 15:35:08;;;;;;;0.20;0.20;;;;;;;;;;6309326;28;20020;-81
2024/01/01 15:38:08;;;;;;;0.20;0.20;;;;;;;;;;6307640;28;20055;-80
2024/01/01 15:41:09;;;;;;;0.20;0.20;;;;;;;;;;6304261;28;20073;-80
2024/01/01 15:44:09;;;;;;;0.20;0.20;;;;;;;;;;6316277;28;20020;-81
2024/01/01 15:47:10;;;;;;;0.20;0.20;;;;;;;;;;6309425;28;20015;-80
2024/01/01 15:50:10;;;;;;;0.20;0.20;;;;;;;;;;6319505;28;20393;-81
2024/01/01 15:53:10;;;;;;;0.20;0.20;;;;;;;;;;6316793;28;20027;-80
2024/01/01 15:56:10;;;;;;;0.20;0.20;;;;;;;;;;6312261;28;20024;-80
2024/01/01 15:59:11;;;;;;;0.20;0.20;;;;;;;;;;6293459;28;20051;-80
2024/01/01 16:02:11;;;;;;;0.20;0.20;;;;;;;;;;6296725;28;23701;-80
2024/01/01 16:05:11;;;;;;;0.20;0.20;;;;;;;;;;6319622;28;20012;-80
2024/01/01 16:08:11;;;;;;;0.20;0.20;;;;;;;;;;6323247;28;20087;-80
2024/01/01 16:11:11;;;;;;;0.20;0.20;;;;;;;;;;6321282;28;20023;-80
2024/01/01 16:14:12;;;;;;;0.20;0.20;;;;;;;;;;6323381;28;20008;-80
2024/01/01 16:17:12;;;;;;;0.20;0.20;;;;;;;;;;6316102;28;20103;-80
2024/01/01 16:20:12;;;;;;;0.20;0.20;;;;;;;;;;6313917;28;20020;-80
2024/01/01 16:23:12;;;;;;;0.20;0.20;;;;;;;;;;6310557;28;20028;-79
2024/01/01 16:26:13;;;;;;;0.20;0.20;;;;;;;;;;6331656;28;20043;-80
2024/01/01 16:29:13;;;;;;;0.20;0.20;;;;;;;;;;6310252;28;20025;-79
2024/01/01 16:32:14;;;;;;;0.20;0.20;;;;;;;;;;6310894;28;20021;-79
2024/01/01 16:35:16;;;;;;;0.10;0.10;;;;;;;;;;6322132;28;20118;-79
2024/01/01 16:38:16;;;;;;;0.20;0.20;;;;;;;;;;6297094;28;20375;-79
2024/01/01 16:41:21;;;;;;;0.20;0.20;;;;;;;;;;6294385;28;20115;-78
2024/01/01 16:44:21;;;;;;;0.20;0.20;;;;;;;;;;6268450;28;20113;-78
2024/01/01 16:47:22;;;;;;;0.20;0.20;;;;;;;;;;6312768;28;20024;-78
2024/01/01 16:50:23;;;;;;;0.20;0.20;;;;;;;;;;6325223;28;20011;-80
2024/01/01 16:53:24;;;;;;;0.20;0.20;;;;;;;;;;6308716;28;20012;-78
2024/01/01 16:56:25;;;;;;;0.20;0.20;;;;;;;;;;6323961;28;20016;-77
2024/01/01 16:59:25;;;;;;;0.10;0.10;;;;;;;;;;6328630;28;20478;-77
2024/01/01 17:02:26;;;;;;;0.20;0.20;;;;;;;;;;6331783;28;20072;-79
2024/01/01 17:05:26;;;;;;;0.10;0.10;;;;;;;;;;6339948;28;20012;-78
2024/01/01 17:08:27;;;;;;;0.10;0.10;;;;;;;;;;6312645;28;20035;-77
2024/01/01 17:11:27;;;;;;;0.10;0.10;;;;;;;;;;6333270;28;20023;-77
2024/01/01 17:14:28;;;;;;;0.20;0.20;;;;;;;;;;6302417;28;20016;-78
2024/01/01 17:17:28;;;;;;;0.20;0.20;;;;;;;;;;6299170;28;20030;-77
2024/01/01 17:20:28;;;;;;;0.20;0.20;;;;;;;;;;6312695;28;20035;-77
2024/01/01 17:23:29;;;;;;;0.20;0.20;;;;;;;;;;6334424;28;20016;-77
2024/01/01 17:26:29;;;;;;;0.20;0.20;;;;;;;;;;6328276;28;20517;-77
2024/01/01 17:29:31;;;;;;;0.20;0.20;;;;;;;;;;6340120;28;20517;-77
2024/01/01 17:32:32;;;;;;;0.20;0.20;;;;;;;;;;6309209;28;20020;-77
2024/01/01 17:35:36;;;;;;;0.20;0.20;;;;;;;;;;6324481;28;20011;-77
2024/01/01 17:38:36;;;;;;;0.20;0.20;;;;;;;;;;6314765;28;20024;-77
2024/01/01 17:41:37;;;;;;;0.20;0.20;;;;;;;;;;6313995;28;20544;-77
2024/01/01 17:44:37;;;;;;;0.20;0.20;;;;;;;;;;6319996;28;20032;-77
2024/01/01 17:47:37;;;;;;;0.10;0.10;;;;;;;;;;6287223;28;20034;-77
2024/01/01 17:50:37;;;;;;;0.20;0.20;;;;;;;;;;6303830;28;20004;-77
2024/01/01 17:53:38;;;;;;;0.20;0.20;;;;;;;;;;6324258;28;20031;-81
2024/01/01 17:56:39;;;;;;;0.20;0.20;;;;;;;;;;6320136;28;20013;-81
2024/01/01 17:59:40;;;;;;;0.20;0.20;;;;;;;;;;6310981;28;20023;-81
2024/01/01 18:02:40;;;;;;;0.20;0.20;;;;;;;;;;6311826;28;20110;-81